ENTC/TOS METAR and TAF weather

Enter ICAO airport designator
Station Type Date Time Source
ENTC METAR 2021/05/12 01:50 UTC NOAA

ENTC 120150Z 03006KT 9999 FEW043 SCT090 BKN100 03/M01 Q1017 RMK WIND 2600FT 11012KT


Station Type Date Time Source
ENTC Decoded METAR 2021/05/12 01:50 UTC NOAA

Tromso / Langnes, Norway (ENTC) 69-41N 018-55E 10M
May 11, 2021 - 09:50 PM EDT / 2021.05.12 0150 UTC
Wind: from the NNE (030 degrees) at 7 MPH (6 KT):0
Visibility: greater than 7 mile(s):0
Sky conditions: mostly cloudy
Temperature: 37 F (3 C)
Dew Point: 30 F (-1 C)
Relative Humidity: 74%
Pressure (altimeter): 30.03 in. Hg (1017 hPa)
ob: ENTC 120150Z 03006KT 9999 FEW043 SCT090 BKN100 03/M01 Q1017 RMK WIND 2600FT 11012KT
cycle: 2

Station Type Date Time Source
ENTC TAF 2021/05/11 18:57 UTC NOAA

TAF ENTC 111700Z 1118/1218 02009KT 9999 FEW015 BKN040 PROB30
TEMPO 1118/1124 BKN014
BECMG 1211/1213 23010KT

Example: see airport list